createdAt,value
2022-08-09T00:02:34.142Z,101594.16
2022-08-09T00:07:44.416Z,101596.19
2022-08-09T00:12:51.565Z,101601.88
2022-08-09T00:18:05.513Z,101615.08
2022-08-09T00:23:56.193Z,101613.84
2022-08-09T00:28:37.461Z,101616.98
2022-08-09T00:33:50.757Z,101618.38
2022-08-09T00:38:54.754Z,101611.27
2022-08-09T00:44:10.640Z,101612.54
2022-08-09T00:49:22.494Z,101614.95
2022-08-09T00:54:35.210Z,101614.41
2022-08-09T00:59:45.989Z,101620.92
2022-08-09T01:05:22.045Z,101623.71
2022-08-09T01:10:38.050Z,101620.42
2022-08-09T01:15:52.611Z,101622.00
2022-08-09T01:21:19.485Z,101618.98
2022-08-09T01:27:10.398Z,101620.13
2022-08-09T01:32:30.308Z,101622.23
2022-08-09T01:38:05.761Z,101622.92
2022-08-09T01:42:59.479Z,101626.98
2022-08-09T01:48:06.069Z,101625.80
2022-08-09T01:53:19.267Z,101626.46
2022-08-09T01:58:24.341Z,101625.83
2022-08-09T02:03:29.440Z,101623.77
2022-08-09T02:08:40.278Z,101628.91
2022-08-09T02:14:06.933Z,101628.73
2022-08-09T02:19:10.483Z,101628.27
2022-08-09T02:24:26.189Z,101625.84
2022-08-09T02:29:32.627Z,101623.11
2022-08-09T02:34:41.466Z,101620.77
2022-08-09T02:40:10.297Z,101626.02
2022-08-09T02:45:18.896Z,101629.87
2022-08-09T02:50:29.777Z,101631.30
2022-08-09T02:55:46.126Z,101633.83
2022-08-09T03:00:58.671Z,101637.51
2022-08-09T03:06:01.884Z,101638.71
2022-08-09T03:11:04.725Z,101643.84
2022-08-09T03:16:14.422Z,101643.31
2022-08-09T03:21:18.808Z,101645.34
2022-08-09T03:26:30.802Z,101647.76
2022-08-09T03:31:42.621Z,101648.55
2022-08-09T03:36:59.762Z,101648.88
2022-08-09T03:42:06.142Z,101648.55
2022-08-09T03:47:09.995Z,101650.14
2022-08-09T03:52:13.360Z,101652.86
2022-08-09T03:57:19.908Z,101656.27
2022-08-09T04:02:27.893Z,101661.36
2022-08-09T04:07:33.675Z,101665.87
2022-08-09T04:12:52.634Z,101666.61
2022-08-09T04:17:57.702Z,101665.82
2022-08-09T04:23:00.702Z,101665.33
2022-08-09T04:28:05.082Z,101663.96
2022-08-09T04:33:09.250Z,101670.55
2022-08-09T04:38:12.695Z,101667.75
2022-08-09T04:43:18.366Z,101666.57
2022-08-09T04:48:23.802Z,101668.45
2022-08-09T04:53:36.176Z,101675.02
2022-08-09T04:58:38.941Z,101673.20
2022-08-09T05:03:43.705Z,101673.06
2022-08-09T05:08:47.812Z,101680.84
2022-08-09T05:13:51.003Z,101689.06
2022-08-09T05:18:59.924Z,101693.95
2022-08-09T05:24:04.745Z,101700.91
2022-08-09T05:29:17.560Z,101702.44
2022-08-09T05:34:29.805Z,101703.23
2022-08-09T05:39:43.302Z,101700.27
2022-08-09T05:44:50.425Z,101703.92
2022-08-09T05:50:25.348Z,101706.97
2022-08-09T05:55:20.707Z,101705.87
2022-08-09T06:00:26.753Z,101705.02
2022-08-09T06:05:57.053Z,101700.05
2022-08-09T06:10:58.129Z,101703.32
2022-08-09T06:16:04.840Z,101707.17
2022-08-09T06:21:08.353Z,101706.60
2022-08-09T06:26:20.893Z,101710.02
2022-08-09T06:31:31.551Z,101711.33
2022-08-09T06:36:43.990Z,101711.00
2022-08-09T06:42:08.594Z,101713.89
2022-08-09T06:47:11.683Z,101717.29
2022-08-09T06:52:15.663Z,101717.09
2022-08-09T06:57:18.840Z,101721.48
2022-08-09T07:02:31.729Z,101724.96
2022-08-09T07:08:00.143Z,101720.30
2022-08-09T07:12:59.667Z,101722.07
2022-08-09T07:18:03.298Z,101722.59
2022-08-09T07:23:19.153Z,101725.04
2022-08-09T07:28:26.411Z,101729.40
2022-08-09T07:33:53.186Z,101733.03
2022-08-09T07:39:00.781Z,101736.55
2022-08-09T07:44:05.283Z,101737.92
2022-08-09T07:49:08.357Z,101741.94
2022-08-09T07:54:28.171Z,101738.36
2022-08-09T07:59:34.361Z,101740.31
2022-08-09T08:04:49.445Z,101742.92
2022-08-09T08:10:08.050Z,101740.52
2022-08-09T08:15:16.470Z,101748.27
2022-08-09T08:20:29.078Z,101750.00
2022-08-09T08:25:44.186Z,101747.41
2022-08-09T08:30:48.940Z,101748.17
2022-08-09T08:36:00.421Z,101752.98
2022-08-09T08:41:05.663Z,101758.85
2022-08-09T08:46:33.343Z,101753.33
2022-08-09T08:51:38.804Z,101753.98
2022-08-09T08:56:45.450Z,101751.19
2022-08-09T09:01:57.524Z,101753.59
2022-08-09T09:07:08.560Z,101750.02
2022-08-09T09:12:16.968Z,101741.39
2022-08-09T09:17:21.269Z,101739.37
2022-08-09T09:22:28.640Z,101739.96
2022-08-09T09:28:05.425Z,101739.20
2022-08-09T09:33:16.891Z,101739.90
2022-08-09T09:38:27.804Z,101745.69
2022-08-09T09:43:41.292Z,101741.42
2022-08-09T09:49:12.748Z,101738.29
2022-08-09T09:54:20.482Z,101735.44
2022-08-09T09:59:35.447Z,101733.35
2022-08-09T10:04:38.874Z,101733.91
2022-08-09T10:09:54.490Z,101732.70
2022-08-09T10:15:17.495Z,101730.10
2022-08-09T10:20:45.230Z,101731.52
2022-08-09T10:26:07.186Z,101733.95
2022-08-09T10:36:58.220Z,101735.07
2022-08-09T10:42:01.296Z,101732.13
2022-08-09T10:48:26.218Z,101730.13
2022-08-09T10:53:39.709Z,101727.74
2022-08-09T10:58:56.668Z,101723.27
2022-08-09T11:04:27.874Z,101724.61
2022-08-09T11:09:41.191Z,101726.44
2022-08-09T11:14:55.843Z,101719.13
2022-08-09T11:20:22.101Z,101715.79
2022-08-09T11:25:45.247Z,101715.39
2022-08-09T11:30:50.913Z,101715.83
2022-08-09T11:36:01.081Z,101712.30
2022-08-09T11:41:16.492Z,101709.83
2022-08-09T11:46:32.741Z,101710.59
2022-08-09T11:53:06.277Z,101708.16
2022-08-09T11:57:56.851Z,101707.53
2022-08-09T12:03:50.715Z,101703.24
2022-08-09T12:08:27.954Z,101695.80
2022-08-09T12:14:10.832Z,101696.36
2022-08-09T12:19:12.376Z,101691.71
2022-08-09T12:24:22.434Z,101687.66
2022-08-09T12:29:44.738Z,101684.55
2022-08-09T12:34:53.351Z,101684.09
2022-08-09T12:40:26.777Z,101679.13
2022-08-09T12:45:33.853Z,101672.46
2022-08-09T12:50:41.278Z,101666.09
2022-08-09T12:56:16.043Z,101662.25
2022-08-09T13:01:26.757Z,101664.09
2022-08-09T13:06:40.236Z,101658.67
2022-08-09T13:11:48.112Z,101652.21
2022-08-09T13:17:02.081Z,101652.88
2022-08-09T13:22:36.844Z,101650.23
2022-08-09T13:27:54.560Z,101646.68
2022-08-09T13:32:58.417Z,101644.42
2022-08-09T13:38:04.254Z,101645.72
2022-08-09T13:43:22.966Z,101649.21
2022-08-09T13:48:38.755Z,101647.23
2022-08-09T13:53:44.991Z,101653.39
2022-08-09T13:58:47.791Z,101646.65
2022-08-09T14:04:03.391Z,101643.68
2022-08-09T14:09:07.591Z,101636.61
2022-08-09T14:14:24.175Z,101642.20
2022-08-09T14:19:33.252Z,101635.86
2022-08-09T14:24:36.648Z,101632.70
2022-08-09T14:30:34.862Z,101633.40
2022-08-09T14:35:12.744Z,101631.66
2022-08-09T14:40:16.431Z,101624.98
2022-08-09T14:46:58.523Z,101626.87
2022-08-09T14:50:42.218Z,101627.77
2022-08-09T14:55:50.162Z,101628.20
2022-08-09T15:00:53.503Z,101625.54
2022-08-09T15:06:01.700Z,101620.50
2022-08-09T15:11:07.462Z,101618.98
2022-08-09T15:16:10.420Z,101615.15
2022-08-09T15:21:56.592Z,101608.77
2022-08-09T15:26:36.311Z,101606.36
2022-08-09T15:31:48.377Z,101604.11
2022-08-09T15:36:52.451Z,101603.01
2022-08-09T15:41:55.572Z,101607.95
2022-08-09T15:46:58.494Z,101605.38
2022-08-09T15:52:06.033Z,101602.98
2022-08-09T15:57:09.392Z,101607.47
2022-08-09T16:02:13.273Z,101612.17
2022-08-09T16:07:16.626Z,101614.29
2022-08-09T16:12:20.039Z,101616.48
2022-08-09T16:17:22.778Z,101618.83
2022-08-09T16:22:27.498Z,101615.92
2022-08-09T16:27:30.490Z,101617.48
2022-08-09T16:32:53.646Z,101620.14
2022-08-09T16:37:59.400Z,101619.42
2022-08-09T16:43:04.434Z,101620.23
2022-08-09T16:48:42.402Z,101618.27
2022-08-09T16:53:34.302Z,101617.70
2022-08-09T16:58:39.906Z,101614.91
2022-08-09T17:03:54.350Z,101621.71
2022-08-09T17:09:09.443Z,101624.95
2022-08-09T17:14:25.404Z,101629.05
2022-08-09T17:20:09.117Z,101636.30
2022-08-09T17:25:03.099Z,101637.11
2022-08-09T17:30:12.992Z,101646.90
2022-08-09T17:35:17.661Z,101651.23
2022-08-09T17:40:21.090Z,101651.83
2022-08-09T17:45:56.890Z,101652.80
2022-08-09T17:50:56.163Z,101651.48
2022-08-09T17:56:03.246Z,101654.75
2022-08-09T18:01:15.663Z,101658.78
2022-08-09T18:06:32.452Z,101657.42
2022-08-09T18:12:05.390Z,101658.86
2022-08-09T18:17:01.751Z,101662.02
2022-08-09T18:22:04.694Z,101667.22
2022-08-09T18:27:10.224Z,101667.27
2022-08-09T18:32:21.576Z,101670.52
2022-08-09T18:37:47.248Z,101671.55
2022-08-09T18:42:50.427Z,101678.10
2022-08-09T18:47:53.593Z,101684.83
2022-08-09T18:52:57.492Z,101684.19
2022-08-09T18:58:04.792Z,101682.81
2022-08-09T19:03:16.641Z,101679.86
2022-08-09T19:08:19.963Z,101682.13
2022-08-09T19:13:37.989Z,101687.38
2022-08-09T19:18:45.886Z,101689.85
2022-08-09T19:24:39.526Z,101695.94
2022-08-09T19:29:18.080Z,101697.96
2022-08-09T19:34:24.553Z,101694.54
2022-08-09T19:39:42.993Z,101696.61
2022-08-09T19:44:52.662Z,101694.71
2022-08-09T19:50:09.778Z,101699.63
2022-08-09T19:55:19.693Z,101693.68
2022-08-09T20:00:28.927Z,101694.35
2022-08-09T20:05:45.953Z,101697.94
2022-08-09T20:10:51.652Z,101693.21
2022-08-09T20:16:36.869Z,101695.85
2022-08-09T20:21:19.160Z,101694.89
2022-08-09T20:26:28.773Z,101696.55
2022-08-09T20:31:33.250Z,101698.27
2022-08-09T20:36:54.389Z,101697.73
2022-08-09T20:41:57.115Z,101696.27
2022-08-09T20:46:59.896Z,101691.73
2022-08-09T20:52:04.860Z,101691.98
2022-08-09T20:57:07.832Z,101691.10
2022-08-09T21:02:17.468Z,101693.39
2022-08-09T21:07:30.020Z,101694.05
2022-08-09T21:18:23.068Z,101693.36
2022-08-09T21:23:26.478Z,101689.23
2022-08-09T21:28:55.536Z,101692.81
2022-08-09T21:33:59.136Z,101694.55
2022-08-09T21:39:05.768Z,101695.48
2022-08-09T21:44:09.279Z,101701.52
2022-08-09T21:49:12.658Z,101702.40
2022-08-09T21:54:16.641Z,101705.72
2022-08-09T21:59:19.556Z,101705.40
2022-08-09T22:04:55.334Z,101703.61
2022-08-09T22:09:50.516Z,101709.59
2022-08-09T22:14:54.757Z,101706.08
2022-08-09T22:20:00.133Z,101703.31
2022-08-09T22:26:07.645Z,101700.61
2022-08-09T22:30:33.307Z,101702.48
2022-08-09T22:36:01.086Z,101697.67
2022-08-09T22:41:00.663Z,101691.64
2022-08-09T22:48:10.962Z,101689.69
2022-08-09T22:51:26.308Z,101692.33
2022-08-09T22:56:33.784Z,101689.45
2022-08-09T23:01:39.018Z,101690.72
2022-08-09T23:07:00.642Z,101690.64
2022-08-09T23:12:04.819Z,101684.98
2022-08-09T23:17:07.571Z,101684.01
2022-08-09T23:22:10.370Z,101686.58
2022-08-09T23:27:13.203Z,101686.76
2022-08-09T23:32:16.058Z,101690.84
2022-08-09T23:37:21.406Z,101692.30
2022-08-09T23:42:25.614Z,101692.46
2022-08-09T23:47:28.687Z,101689.86
2022-08-09T23:52:31.485Z,101691.43
2022-08-09T23:57:41.620Z,101690.39
